Domov               UVHVVR             MKGP            O straneh              
ZDRAVSTVENO VARSTVO RASTLIN
  MREŽA AGROMET. POSTAJ
 ► PROGNOSTIČNA OBVESTILA
AGROMETEOROLOŠKI PODATKI -
ARSO
OBVLADOVANJE TVEGANJ ZARADI
NEUGODNIH VREMENSKIH RAZMER
  ► NARAVNE NESREČE
  ► SUŠA/MOČA
  ► NAMAKANJE
  ► ŽLED (gozdarstvo)
KARTOGRAFSKI PRIKAZI
SPLETNE POVEZAVE
PROJEKTI IN PUBLIKACIJE

AGROMETEOROLOŠKA MREŽA: VREMENSKE POSTAJE IN FENOLOŠKA OPAZOVANJA

Pregled podatkov za lokacijo Godemarci, meteorološka postaja 37828

Pregled senzorjev na lokaciji

ID Ime Zadnja
vrednost
Datum
zadnje
spremembe
Tip
senzorja
3799 Omočenost lista (U) 0 U 17.8.2017 19:00 A730WET
3800 Temperatura 2 m ( °C) 26,35 °C 17.8.2017 19:00 50YA
3801 Relativna vlaga 2 m (% RH) 57,39 % RH 17.8.2017 19:00 50YA
3802 Padavine 0.2 mm (mm) 0 mm 17.8.2017 19:00 Rain-O-Matic

Pregled podatkov zadnjih 24 ur

Zap.
št.
Datum in čas Godemarci
Omočenost
lista
Padavine
0.2
mm
Relativna
vlaga
2
m
Temperatura
2
m
0 17.8.2017 18:00 0 0 57,39 26,35
1 17.8.2017 17:30 0 0 43,49 29,67
2 17.8.2017 17:00 0 0 31,79 31,99
3 17.8.2017 16:30 0 0 32,09 32,45
4 17.8.2017 16:00 0 0 32,36 32,43
5 17.8.2017 15:30 0 0 31,97 32,87
6 17.8.2017 15:00 0 0 33,89 31,82
7 17.8.2017 14:30 0 0 38,75 30,35
8 17.8.2017 14:00 0 0 40,34 30,13
9 17.8.2017 13:30 0 0 42,12 29,5
10 17.8.2017 13:00 0 0 43,98 28,96
11 17.8.2017 12:30 0 0 44,69 28,57
12 17.8.2017 12:00 0 0 47,37 28,25
13 17.8.2017 11:30 0 0 46,28 27,5
14 17.8.2017 11:00 0 0 47,74 28,03
15 17.8.2017 10:30 0 0 47,5 28,01
16 17.8.2017 10:00 0 0 48,89 27,33
17 17.8.2017 09:30 0 0 51,72 27,11
18 17.8.2017 09:00 0 0 54,68 25,59
19 17.8.2017 08:30 0 0 61,07 24,49
20 17.8.2017 08:00 0 0 62,37 24,27
21 17.8.2017 07:30 0 0 71,75 21,73
22 17.8.2017 07:00 1 0 85,71 19,32
23 17.8.2017 06:30 1 0 99,93 16,85
24 17.8.2017 06:00 1 0 99,93 15,04
25 17.8.2017 05:30 1 0 99,93 14,14
26 17.8.2017 05:00 1 0 99,93 14,43
27 17.8.2017 04:30 1 0 99,93 14,55
28 17.8.2017 04:00 1 0 99,93 14,7
29 17.8.2017 03:30 1 0 99,93 15,36
30 17.8.2017 03:00 1 0 99,93 15,31
31 17.8.2017 02:30 1 0 99,93 15,43
32 17.8.2017 02:00 1 0 99,93 15,97
33 17.8.2017 01:30 1 0 99,93 16,14
34 17.8.2017 01:00 1 0 99,68 16,02
35 17.8.2017 00:30 1 0 98,75 16,19
36 17.8.2017 00:00 1 0 98,22 16,68
37 16.8.2017 23:30 1 0 96,63 16,92
38 16.8.2017 23:00 1 0 92,8 17,22
39 16.8.2017 22:30 1 0 90,06 17,85
40 16.8.2017 22:00 1 0 87,13 18,51
41 16.8.2017 21:30 0 0 83,86 19,22
42 16.8.2017 21:00 0 0 77,22 20,32
43 16.8.2017 20:30 0 0 75,6 20,9
44 16.8.2017 20:00 0 0 73,55 21,59
45 16.8.2017 19:30 0 0 71,45 22,32
© 2011 Ministrstvo za kmetijstvo, gozdarstvo in prehrano. Vse pravice pridržane.